sensor_id;sensor_type;location;lat;lon;timestamp;pressure;altitude;pressure_sealevel;temperature;humidity
50103;BME280;35993;52.604;10.078;2024-02-21T00:00:54;101658.50;;;9.03;100.00
50103;BME280;35993;52.604;10.078;2024-02-21T00:03:20;101652.84;;;8.75;100.00
50103;BME280;35993;52.604;10.078;2024-02-21T00:05:46;101650.91;;;8.60;100.00
50103;BME280;35993;52.604;10.078;2024-02-21T00:08:11;101657.69;;;8.56;100.00
50103;BME280;35993;52.604;10.078;2024-02-21T00:10:37;101658.47;;;8.88;100.00
50103;BME280;35993;52.604;10.078;2024-02-21T00:13:02;101664.47;;;8.98;100.00
50103;BME280;35993;52.604;10.078;2024-02-21T00:15:28;101649.41;;;8.96;100.00
50103;BME280;35993;52.604;10.078;2024-02-21T00:17:54;101652.16;;;9.11;100.00
50103;BME280;35993;52.604;10.078;2024-02-21T00:20:19;101637.19;;;8.85;100.00
50103;BME280;35993;52.604;10.078;2024-02-21T00:22:45;101639.69;;;8.87;100.00
50103;BME280;35993;52.604;10.078;2024-02-21T00:25:11;101633.50;;;8.78;100.00
50103;BME280;35993;52.604;10.078;2024-02-21T00:27:37;101633.41;;;8.86;100.00
50103;BME280;35993;52.604;10.078;2024-02-21T00:30:03;101630.16;;;8.91;100.00
50103;BME280;35993;52.604;10.078;2024-02-21T00:32:29;101631.41;;;9.03;100.00
50103;BME280;35993;52.604;10.078;2024-02-21T00:34:54;101622.56;;;9.09;100.00
50103;BME280;35993;52.604;10.078;2024-02-21T00:37:20;101622.63;;;9.01;100.00
50103;BME280;35993;52.604;10.078;2024-02-21T00:39:45;101607.84;;;8.89;100.00
50103;BME280;35993;52.604;10.078;2024-02-21T00:42:11;101607.56;;;8.83;100.00
50103;BME280;35993;52.604;10.078;2024-02-21T00:44:36;101602.59;;;8.72;100.00
50103;BME280;35993;52.604;10.078;2024-02-21T00:47:02;101596.44;;;8.32;100.00
50103;BME280;35993;52.604;10.078;2024-02-21T00:49:27;101598.78;;;8.12;100.00
50103;BME280;35993;52.604;10.078;2024-02-21T00:51:53;101593.63;;;8.02;100.00
50103;BME280;35993;52.604;10.078;2024-02-21T00:54:18;101592.91;;;8.08;100.00
50103;BME280;35993;52.604;10.078;2024-02-21T00:56:44;101595.13;;;8.04;100.00
50103;BME280;35993;52.604;10.078;2024-02-21T00:59:09;101585.31;;;8.03;100.00
50103;BME280;35993;52.604;10.078;2024-02-21T01:01:35;101588.16;;;8.10;100.00
50103;BME280;35993;52.604;10.078;2024-02-21T01:04:00;101592.91;;;8.08;100.00
50103;BME280;35993;52.604;10.078;2024-02-21T01:06:26;101581.22;;;8.08;100.00
50103;BME280;35993;52.604;10.078;2024-02-21T01:08:52;101576.78;;;8.15;100.00
50103;BME280;35993;52.604;10.078;2024-02-21T01:11:17;101566.91;;;8.22;100.00
50103;BME280;35993;52.604;10.078;2024-02-21T01:13:43;101565.50;;;8.11;100.00
50103;BME280;35993;52.604;10.078;2024-02-21T01:16:09;101551.78;;;8.13;100.00
50103;BME280;35993;52.604;10.078;2024-02-21T01:18:37;101554.97;;;8.16;100.00
50103;BME280;35993;52.604;10.078;2024-02-21T01:21:03;101554.66;;;8.11;100.00
50103;BME280;35993;52.604;10.078;2024-02-21T01:23:33;101550.69;;;8.22;100.00
50103;BME280;35993;52.604;10.078;2024-02-21T01:25:58;101559.56;;;8.16;100.00
50103;BME280;35993;52.604;10.078;2024-02-21T01:28:24;101550.06;;;8.20;100.00
50103;BME280;35993;52.604;10.078;2024-02-21T01:30:49;101552.81;;;8.12;100.00
50103;BME280;35993;52.604;10.078;2024-02-21T01:33:15;101543.66;;;8.13;100.00
50103;BME280;35993;52.604;10.078;2024-02-21T01:35:40;101537.72;;;8.17;100.00
50103;BME280;35993;52.604;10.078;2024-02-21T01:38:06;101548.19;;;8.20;100.00
50103;BME280;35993;52.604;10.078;2024-02-21T01:40:31;101544.06;;;8.25;100.00
50103;BME280;35993;52.604;10.078;2024-02-21T01:42:57;101529.06;;;8.22;100.00
50103;BME280;35993;52.604;10.078;2024-02-21T01:45:22;101533.53;;;8.15;100.00
50103;BME280;35993;52.604;10.078;2024-02-21T01:47:49;101538.03;;;8.23;100.00
50103;BME280;35993;52.604;10.078;2024-02-21T01:50:15;101539.88;;;8.22;100.00
50103;BME280;35993;52.604;10.078;2024-02-21T01:52:41;101525.00;;;8.26;100.00
50103;BME280;35993;52.604;10.078;2024-02-21T01:55:09;101532.06;;;8.27;100.00
50103;BME280;35993;52.604;10.078;2024-02-21T01:57:36;101529.72;;;8.24;100.00
50103;BME280;35993;52.604;10.078;2024-02-21T02:00:03;101518.41;;;8.20;100.00
50103;BME280;35993;52.604;10.078;2024-02-21T02:02:37;101517.28;;;8.15;100.00
50103;BME280;35993;52.604;10.078;2024-02-21T02:05:04;101522.16;;;8.19;100.00
50103;BME280;35993;52.604;10.078;2024-02-21T02:07:31;101521.13;;;8.20;100.00
50103;BME280;35993;52.604;10.078;2024-02-21T02:09:57;101510.91;;;8.31;100.00
50103;BME280;35993;52.604;10.078;2024-02-21T02:12:22;101512.38;;;8.18;100.00
50103;BME280;35993;52.604;10.078;2024-02-21T02:15:00;101506.97;;;8.18;100.00
50103;BME280;35993;52.604;10.078;2024-02-21T02:17:26;101504.84;;;8.29;100.00
50103;BME280;35993;52.604;10.078;2024-02-21T02:19:51;101505.91;;;8.19;100.00
50103;BME280;35993;52.604;10.078;2024-02-21T02:22:22;101502.97;;;8.29;100.00
50103;BME280;35993;52.604;10.078;2024-02-21T02:24:49;101488.47;;;8.22;100.00
50103;BME280;35993;52.604;10.078;2024-02-21T02:27:17;101480.38;;;8.22;100.00
50103;BME280;35993;52.604;10.078;2024-02-21T02:29:45;101472.84;;;8.32;100.00
50103;BME280;35993;52.604;10.078;2024-02-21T02:32:11;101465.94;;;8.30;100.00
50103;BME280;35993;52.604;10.078;2024-02-21T02:34:36;101473.47;;;8.19;100.00
50103;BME280;35993;52.604;10.078;2024-02-21T02:37:02;101460.59;;;8.22;100.00
50103;BME280;35993;52.604;10.078;2024-02-21T02:39:27;101457.66;;;8.31;100.00
50103;BME280;35993;52.604;10.078;2024-02-21T02:41:53;101446.06;;;8.23;100.00
50103;BME280;35993;52.604;10.078;2024-02-21T02:44:18;101439.53;;;8.32;100.00
50103;BME280;35993;52.604;10.078;2024-02-21T02:46:44;101429.84;;;8.37;100.00
50103;BME280;35993;52.604;10.078;2024-02-21T02:49:11;101427.88;;;8.31;100.00
50103;BME280;35993;52.604;10.078;2024-02-21T02:51:36;101424.13;;;8.32;100.00
50103;BME280;35993;52.604;10.078;2024-02-21T02:54:02;101419.94;;;8.30;100.00
50103;BME280;35993;52.604;10.078;2024-02-21T02:56:28;101409.59;;;8.33;100.00
50103;BME280;35993;52.604;10.078;2024-02-21T02:58:54;101408.03;;;8.39;100.00
50103;BME280;35993;52.604;10.078;2024-02-21T03:01:19;101393.06;;;8.28;100.00
50103;BME280;35993;52.604;10.078;2024-02-21T03:03:45;101386.84;;;8.43;100.00
50103;BME280;35993;52.604;10.078;2024-02-21T03:06:12;101386.44;;;8.31;100.00
50103;BME280;35993;52.604;10.078;2024-02-21T03:08:38;101385.66;;;8.45;100.00
50103;BME280;35993;52.604;10.078;2024-02-21T03:11:05;101385.38;;;8.40;100.00
50103;BME280;35993;52.604;10.078;2024-02-21T03:13:30;101389.16;;;8.31;100.00
50103;BME280;35993;52.604;10.078;2024-02-21T03:15:56;101375.91;;;8.36;100.00
50103;BME280;35993;52.604;10.078;2024-02-21T03:18:21;101374.53;;;8.40;100.00
50103;BME280;35993;52.604;10.078;2024-02-21T03:20:47;101346.91;;;8.45;100.00
50103;BME280;35993;52.604;10.078;2024-02-21T03:23:13;101342.34;;;8.45;100.00
50103;BME280;35993;52.604;10.078;2024-02-21T03:25:38;101352.00;;;8.48;100.00
50103;BME280;35993;52.604;10.078;2024-02-21T03:28:04;101350.94;;;8.49;100.00
50103;BME280;35993;52.604;10.078;2024-02-21T03:30:30;101356.00;;;8.52;100.00
50103;BME280;35993;52.604;10.078;2024-02-21T03:32:55;101362.97;;;8.46;100.00
50103;BME280;35993;52.604;10.078;2024-02-21T03:35:21;101350.09;;;8.48;100.00
50103;BME280;35993;52.604;10.078;2024-02-21T03:37:46;101338.06;;;8.51;100.00
50103;BME280;35993;52.604;10.078;2024-02-21T03:40:12;101351.41;;;8.52;100.00
50103;BME280;35993;52.604;10.078;2024-02-21T03:42:38;101348.97;;;8.58;100.00
50103;BME280;35993;52.604;10.078;2024-02-21T03:45:04;101349.38;;;8.55;100.00
50103;BME280;35993;52.604;10.078;2024-02-21T03:47:29;101350.19;;;8.55;100.00
50103;BME280;35993;52.604;10.078;2024-02-21T03:49:55;101349.63;;;8.60;100.00
50103;BME280;35993;52.604;10.078;2024-02-21T03:52:20;101357.09;;;8.58;100.00
50103;BME280;35993;52.604;10.078;2024-02-21T03:54:46;101359.16;;;8.56;100.00
50103;BME280;35993;52.604;10.078;2024-02-21T03:57:11;101355.53;;;8.63;100.00
50103;BME280;35993;52.604;10.078;2024-02-21T03:59:37;101350.94;;;8.64;100.00
50103;BME280;35993;52.604;10.078;2024-02-21T04:02:05;101361.75;;;8.64;100.00
50103;BME280;35993;52.604;10.078;2024-02-21T04:04:34;101360.06;;;8.63;100.00
50103;BME280;35993;52.604;10.078;2024-02-21T04:07:02;101353.75;;;8.56;100.00
50103;BME280;35993;52.604;10.078;2024-02-21T04:09:32;101350.47;;;8.60;100.00
50103;BME280;35993;52.604;10.078;2024-02-21T04:12:00;101351.31;;;8.61;100.00
50103;BME280;35993;52.604;10.078;2024-02-21T04:14:25;101366.78;;;8.67;100.00
50103;BME280;35993;52.604;10.078;2024-02-21T04:16:51;101375.97;;;8.66;100.00
50103;BME280;35993;52.604;10.078;2024-02-21T04:19:16;101381.25;;;8.59;100.00
50103;BME280;35993;52.604;10.078;2024-02-21T04:21:42;101374.00;;;8.60;100.00
50103;BME280;35993;52.604;10.078;2024-02-21T04:24:08;101386.13;;;8.64;100.00
50103;BME280;35993;52.604;10.078;2024-02-21T04:26:33;101390.59;;;8.57;100.00
50103;BME280;35993;52.604;10.078;2024-02-21T04:28:59;101380.03;;;8.62;100.00
50103;BME280;35993;52.604;10.078;2024-02-21T04:31:25;101371.47;;;8.58;100.00
50103;BME280;35993;52.604;10.078;2024-02-21T04:33:51;101366.34;;;8.63;100.00
50103;BME280;35993;52.604;10.078;2024-02-21T04:36:16;101360.94;;;8.48;100.00
50103;BME280;35993;52.604;10.078;2024-02-21T04:38:42;101372.88;;;8.54;100.00
50103;BME280;35993;52.604;10.078;2024-02-21T04:41:07;101373.91;;;8.53;100.00
50103;BME280;35993;52.604;10.078;2024-02-21T04:43:33;101369.34;;;8.53;100.00
50103;BME280;35993;52.604;10.078;2024-02-21T04:45:58;101361.28;;;8.60;100.00
50103;BME280;35993;52.604;10.078;2024-02-21T04:48:24;101357.75;;;8.60;100.00
50103;BME280;35993;52.604;10.078;2024-02-21T04:50:49;101360.47;;;8.60;100.00
50103;BME280;35993;52.604;10.078;2024-02-21T04:53:15;101369.69;;;8.65;100.00
50103;BME280;35993;52.604;10.078;2024-02-21T04:55:41;101366.06;;;8.58;100.00
50103;BME280;35993;52.604;10.078;2024-02-21T04:58:07;101359.06;;;8.64;100.00
50103;BME280;35993;52.604;10.078;2024-02-21T05:00:33;101349.84;;;8.58;100.00
50103;BME280;35993;52.604;10.078;2024-02-21T05:02:59;101351.41;;;8.52;100.00
50103;BME280;35993;52.604;10.078;2024-02-21T05:05:25;101347.28;;;8.57;100.00
50103;BME280;35993;52.604;10.078;2024-02-21T05:07:50;101345.91;;;8.61;100.00
50103;BME280;35993;52.604;10.078;2024-02-21T05:10:16;101356.91;;;8.59;100.00
50103;BME280;35993;52.604;10.078;2024-02-21T05:12:43;101349.38;;;8.55;100.00
50103;BME280;35993;52.604;10.078;2024-02-21T05:15:08;101345.81;;;8.54;100.00
50103;BME280;35993;52.604;10.078;2024-02-21T05:17:46;101341.72;;;8.58;100.00
50103;BME280;35993;52.604;10.078;2024-02-21T05:20:11;101348.16;;;8.57;100.00
50103;BME280;35993;52.604;10.078;2024-02-21T05:22:37;101353.19;;;8.45;100.00
50103;BME280;35993;52.604;10.078;2024-02-21T05:25:02;101357.44;;;8.40;100.00
50103;BME280;35993;52.604;10.078;2024-02-21T05:27:28;101342.88;;;8.26;100.00
50103;BME280;35993;52.604;10.078;2024-02-21T05:29:54;101348.50;;;8.24;100.00
50103;BME280;35993;52.604;10.078;2024-02-21T05:32:19;101344.78;;;8.25;100.00
50103;BME280;35993;52.604;10.078;2024-02-21T05:34:48;101342.53;;;8.14;100.00
50103;BME280;35993;52.604;10.078;2024-02-21T05:37:14;101346.25;;;8.13;100.00
50103;BME280;35993;52.604;10.078;2024-02-21T05:39:40;101339.53;;;8.09;100.00
50103;BME280;35993;52.604;10.078;2024-02-21T05:42:06;101341.97;;;8.03;100.00
50103;BME280;35993;52.604;10.078;2024-02-21T05:44:32;101349.88;;;8.05;100.00
50103;BME280;35993;52.604;10.078;2024-02-21T05:46:57;101335.59;;;7.96;100.00
50103;BME280;35993;52.604;10.078;2024-02-21T05:49:23;101339.88;;;7.91;100.00
50103;BME280;35993;52.604;10.078;2024-02-21T05:51:48;101338.69;;;7.93;100.00
50103;BME280;35993;52.604;10.078;2024-02-21T05:54:14;101327.47;;;7.96;100.00
50103;BME280;35993;52.604;10.078;2024-02-21T05:56:44;101339.69;;;7.92;100.00
50103;BME280;35993;52.604;10.078;2024-02-21T05:59:09;101332.69;;;7.98;100.00
50103;BME280;35993;52.604;10.078;2024-02-21T06:01:35;101334.13;;;8.09;100.00
50103;BME280;35993;52.604;10.078;2024-02-21T06:04:00;101347.81;;;7.92;100.00
50103;BME280;35993;52.604;10.078;2024-02-21T06:06:26;101339.31;;;7.95;100.00
50103;BME280;35993;52.604;10.078;2024-02-21T06:08:51;101341.19;;;7.95;100.00
50103;BME280;35993;52.604;10.078;2024-02-21T06:11:17;101333.81;;;7.88;100.00
50103;BME280;35993;52.604;10.078;2024-02-21T06:13:42;101333.63;;;7.90;100.00
50103;BME280;35993;52.604;10.078;2024-02-21T06:16:08;101339.03;;;7.90;100.00
50103;BME280;35993;52.604;10.078;2024-02-21T06:18:35;101328.41;;;7.88;100.00
50103;BME280;35993;52.604;10.078;2024-02-21T06:21:01;101329.50;;;7.79;100.00
50103;BME280;35993;52.604;10.078;2024-02-21T06:23:26;101329.03;;;7.76;100.00
50103;BME280;35993;52.604;10.078;2024-02-21T06:25:52;101323.63;;;7.76;100.00
50103;BME280;35993;52.604;10.078;2024-02-21T06:28:17;101329.94;;;7.68;100.00
50103;BME280;35993;52.604;10.078;2024-02-21T06:30:43;101331.06;;;7.74;100.00
50103;BME280;35993;52.604;10.078;2024-02-21T06:33:08;101332.84;;;7.66;100.00
50103;BME280;35993;52.604;10.078;2024-02-21T06:35:34;101325.78;;;7.80;100.00
50103;BME280;35993;52.604;10.078;2024-02-21T06:37:59;101323.44;;;7.77;100.00
50103;BME280;35993;52.604;10.078;2024-02-21T06:40:25;101324.84;;;7.73;100.00
50103;BME280;35993;52.604;10.078;2024-02-21T06:42:51;101321.31;;;7.73;100.00
50103;BME280;35993;52.604;10.078;2024-02-21T06:45:16;101323.88;;;7.66;100.00
50103;BME280;35993;52.604;10.078;2024-02-21T06:47:42;101318.41;;;7.74;100.00
50103;BME280;35993;52.604;10.078;2024-02-21T06:50:08;101315.63;;;7.67;100.00
50103;BME280;35993;52.604;10.078;2024-02-21T06:52:34;101319.81;;;7.70;100.00
50103;BME280;35993;52.604;10.078;2024-02-21T06:55:00;101322.44;;;7.78;100.00
50103;BME280;35993;52.604;10.078;2024-02-21T06:57:26;101319.00;;;7.84;100.00
50103;BME280;35993;52.604;10.078;2024-02-21T06:59:51;101310.69;;;7.86;100.00
50103;BME280;35993;52.604;10.078;2024-02-21T07:02:17;101319.72;;;7.78;100.00
50103;BME280;35993;52.604;10.078;2024-02-21T07:04:42;101317.94;;;7.70;100.00
50103;BME280;35993;52.604;10.078;2024-02-21T07:07:09;101313.78;;;7.83;100.00
50103;BME280;35993;52.604;10.078;2024-02-21T07:09:34;101319.81;;;7.85;100.00
50103;BME280;35993;52.604;10.078;2024-02-21T07:12:00;101315.75;;;7.89;100.00
50103;BME280;35993;52.604;10.078;2024-02-21T07:14:28;101319.09;;;7.91;100.00
50103;BME280;35993;52.604;10.078;2024-02-21T07:16:54;101320.88;;;7.99;100.00
50103;BME280;35993;52.604;10.078;2024-02-21T07:19:20;101313.78;;;7.98;100.00
50103;BME280;35993;52.604;10.078;2024-02-21T07:21:45;101320.50;;;8.02;100.00
50103;BME280;35993;52.604;10.078;2024-02-21T07:24:11;101328.34;;;7.97;100.00
50103;BME280;35993;52.604;10.078;2024-02-21T07:26:41;101328.97;;;7.99;100.00
50103;BME280;35993;52.604;10.078;2024-02-21T07:29:06;101324.88;;;8.03;100.00
50103;BME280;35993;52.604;10.078;2024-02-21T07:31:41;101330.94;;;8.05;100.00
50103;BME280;35993;52.604;10.078;2024-02-21T07:34:07;101333.84;;;8.03;100.00
50103;BME280;35993;52.604;10.078;2024-02-21T07:36:33;101333.75;;;8.12;100.00
50103;BME280;35993;52.604;10.078;2024-02-21T07:38:58;101322.56;;;8.15;100.00
50103;BME280;35993;52.604;10.078;2024-02-21T07:41:27;101321.56;;;8.16;100.00
50103;BME280;35993;52.604;10.078;2024-02-21T07:43:55;101325.09;;;8.16;100.00
50103;BME280;35993;52.604;10.078;2024-02-21T07:46:21;101334.59;;;8.12;100.00
50103;BME280;35993;52.604;10.078;2024-02-21T07:48:46;101324.72;;;8.04;100.00
50103;BME280;35993;52.604;10.078;2024-02-21T07:51:12;101320.22;;;8.12;100.00
50103;BME280;35993;52.604;10.078;2024-02-21T07:53:41;101329.72;;;8.08;100.00
50103;BME280;35993;52.604;10.078;2024-02-21T07:56:14;101341.13;;;8.18;100.00
50103;BME280;35993;52.604;10.078;2024-02-21T07:58:40;101338.63;;;8.31;100.00
50103;BME280;35993;52.604;10.078;2024-02-21T08:01:05;101334.13;;;8.24;100.00
50103;BME280;35993;52.604;10.078;2024-02-21T08:03:31;101336.00;;;8.08;100.00
50103;BME280;35993;52.604;10.078;2024-02-21T08:05:56;101337.19;;;8.20;100.00
50103;BME280;35993;52.604;10.078;2024-02-21T08:08:22;101330.38;;;8.25;100.00
50103;BME280;35993;52.604;10.078;2024-02-21T08:10:48;101330.59;;;8.38;100.00
50103;BME280;35993;52.604;10.078;2024-02-21T08:13:14;101331.88;;;8.42;100.00
50103;BME280;35993;52.604;10.078;2024-02-21T08:15:39;101328.91;;;8.37;100.00
50103;BME280;35993;52.604;10.078;2024-02-21T08:18:07;101325.66;;;8.27;100.00
50103;BME280;35993;52.604;10.078;2024-02-21T08:20:33;101325.72;;;8.33;100.00
50103;BME280;35993;52.604;10.078;2024-02-21T08:22:58;101319.56;;;8.40;100.00
50103;BME280;35993;52.604;10.078;2024-02-21T08:25:24;101327.03;;;8.37;100.00
50103;BME280;35993;52.604;10.078;2024-02-21T08:27:50;101323.69;;;8.35;100.00
50103;BME280;35993;52.604;10.078;2024-02-21T08:30:17;101329.56;;;8.39;100.00
50103;BME280;35993;52.604;10.078;2024-02-21T08:32:42;101318.91;;;8.37;100.00
50103;BME280;35993;52.604;10.078;2024-02-21T08:35:08;101301.78;;;8.30;100.00
50103;BME280;35993;52.604;10.078;2024-02-21T08:37:34;101306.03;;;8.40;100.00
50103;BME280;35993;52.604;10.078;2024-02-21T08:39:59;101308.19;;;8.44;100.00
50103;BME280;35993;52.604;10.078;2024-02-21T08:42:30;101297.56;;;8.43;100.00
50103;BME280;35993;52.604;10.078;2024-02-21T08:44:55;101299.53;;;8.49;100.00
50103;BME280;35993;52.604;10.078;2024-02-21T08:47:21;101293.38;;;8.55;100.00
50103;BME280;35993;52.604;10.078;2024-02-21T08:49:46;101291.59;;;8.62;100.00
50103;BME280;35993;52.604;10.078;2024-02-21T08:52:13;101304.38;;;8.68;100.00
50103;BME280;35993;52.604;10.078;2024-02-21T08:54:38;101294.66;;;8.59;100.00
50103;BME280;35993;52.604;10.078;2024-02-21T08:57:04;101290.03;;;8.53;100.00
50103;BME280;35993;52.604;10.078;2024-02-21T08:59:29;101272.06;;;8.67;100.00
50103;BME280;35993;52.604;10.078;2024-02-21T09:01:55;101270.94;;;8.76;100.00
50103;BME280;35993;52.604;10.078;2024-02-21T09:04:20;101278.84;;;8.78;100.00
50103;BME280;35993;52.604;10.078;2024-02-21T09:06:46;101271.00;;;8.83;100.00
50103;BME280;35993;52.604;10.078;2024-02-21T09:09:12;101273.97;;;8.88;100.00
50103;BME280;35993;52.604;10.078;2024-02-21T09:11:38;101271.97;;;8.97;100.00
50103;BME280;35993;52.604;10.078;2024-02-21T09:14:05;101266.34;;;8.98;100.00
50103;BME280;35993;52.604;10.078;2024-02-21T09:16:31;101275.31;;;8.99;100.00
50103;BME280;35993;52.604;10.078;2024-02-21T09:18:57;101274.94;;;9.02;100.00
50103;BME280;35993;52.604;10.078;2024-02-21T09:21:23;101271.06;;;9.11;100.00
50103;BME280;35993;52.604;10.078;2024-02-21T09:23:49;101277.50;;;9.10;100.00
50103;BME280;35993;52.604;10.078;2024-02-21T09:26:14;101277.19;;;9.20;100.00
50103;BME280;35993;52.604;10.078;2024-02-21T09:28:43;101266.56;;;9.18;100.00
50103;BME280;35993;52.604;10.078;2024-02-21T09:31:09;101262.16;;;9.17;100.00
50103;BME280;35993;52.604;10.078;2024-02-21T09:33:34;101263.97;;;9.32;100.00
50103;BME280;35993;52.604;10.078;2024-02-21T09:36:01;101259.56;;;9.31;100.00
50103;BME280;35993;52.604;10.078;2024-02-21T09:38:26;101265.13;;;9.23;100.00
50103;BME280;35993;52.604;10.078;2024-02-21T09:40:59;101253.13;;;9.32;100.00
50103;BME280;35993;52.604;10.078;2024-02-21T09:43:26;101259.41;;;9.32;100.00
50103;BME280;35993;52.604;10.078;2024-02-21T09:45:54;101249.63;;;9.38;100.00
50103;BME280;35993;52.604;10.078;2024-02-21T09:51:02;101239.75;;;9.52;100.00
50103;BME280;35993;52.604;10.078;2024-02-21T09:53:29;101246.97;;;9.45;100.00
50103;BME280;35993;52.604;10.078;2024-02-21T09:55:56;101239.44;;;9.40;100.00
50103;BME280;35993;52.604;10.078;2024-02-21T09:58:23;101249.94;;;9.50;100.00
50103;BME280;35993;52.604;10.078;2024-02-21T10:00:49;101253.41;;;9.65;100.00
50103;BME280;35993;52.604;10.078;2024-02-21T10:03:15;101252.66;;;9.78;100.00
50103;BME280;35993;52.604;10.078;2024-02-21T10:05:47;101254.69;;;9.70;100.00
50103;BME280;35993;52.604;10.078;2024-02-21T10:08:15;101245.13;;;9.80;100.00
50103;BME280;35993;52.604;10.078;2024-02-21T10:10:43;101239.69;;;9.74;100.00
50103;BME280;35993;52.604;10.078;2024-02-21T10:13:09;101235.53;;;9.78;100.00
50103;BME280;35993;52.604;10.078;2024-02-21T10:15:35;101237.66;;;9.82;100.00
50103;BME280;35993;52.604;10.078;2024-02-21T10:18:01;101237.41;;;9.77;100.00
50103;BME280;35993;52.604;10.078;2024-02-21T10:20:31;101230.91;;;9.72;100.00
50103;BME280;35993;52.604;10.078;2024-02-21T10:23:04;101227.81;;;9.75;100.00
50103;BME280;35993;52.604;10.078;2024-02-21T10:25:38;101218.91;;;9.88;100.00
50103;BME280;35993;52.604;10.078;2024-02-21T10:28:07;101226.00;;;9.89;100.00
50103;BME280;35993;52.604;10.078;2024-02-21T10:30:32;101212.47;;;9.89;100.00
50103;BME280;35993;52.604;10.078;2024-02-21T10:32:58;101208.28;;;9.86;100.00
50103;BME280;35993;52.604;10.078;2024-02-21T10:37:54;101211.66;;;9.95;99.40
50103;BME280;35993;52.604;10.078;2024-02-21T10:40:30;101196.22;;;9.95;98.80
50103;BME280;35993;52.604;10.078;2024-02-21T10:43:00;101189.97;;;9.95;97.32
50103;BME280;35993;52.604;10.078;2024-02-21T10:45:30;101189.81;;;10.10;97.52
50103;BME280;35993;52.604;10.078;2024-02-21T10:48:11;101183.69;;;9.94;96.68
50103;BME280;35993;52.604;10.078;2024-02-21T10:51:01;101173.88;;;9.93;94.75
50103;BME280;35993;52.604;10.078;2024-02-21T10:56:15;101157.25;;;10.16;93.69
50103;BME280;35993;52.604;10.078;2024-02-21T10:58:42;101156.63;;;10.08;92.41
50103;BME280;35993;52.604;10.078;2024-02-21T11:01:09;101153.94;;;10.21;92.29
50103;BME280;35993;52.604;10.078;2024-02-21T11:03:36;101144.53;;;10.10;89.59
50103;BME280;35993;52.604;10.078;2024-02-21T11:06:02;101135.53;;;10.10;88.63
50103;BME280;35993;52.604;10.078;2024-02-21T11:08:30;101126.13;;;9.99;88.22
50103;BME280;35993;52.604;10.078;2024-02-21T11:10:59;101135.53;;;10.10;89.28
50103;BME280;35993;52.604;10.078;2024-02-21T11:13:35;101119.06;;;10.11;87.94
50103;BME280;35993;52.604;10.078;2024-02-21T11:16:10;101119.75;;;10.27;87.49
50103;BME280;35993;52.604;10.078;2024-02-21T11:18:37;101116.75;;;10.08;85.90
50103;BME280;35993;52.604;10.078;2024-02-21T11:21:03;101100.72;;;10.20;85.22
50103;BME280;35993;52.604;10.078;2024-02-21T11:23:30;101116.84;;;10.28;85.65
50103;BME280;35993;52.604;10.078;2024-02-21T11:26:09;101094.91;;;10.30;86.15
50103;BME280;35993;52.604;10.078;2024-02-21T11:28:36;101104.72;;;10.31;86.78
50103;BME280;35993;52.604;10.078;2024-02-21T11:31:11;101102.22;;;10.29;87.16
50103;BME280;35993;52.604;10.078;2024-02-21T11:33:58;101085.47;;;10.19;87.42
50103;BME280;35993;52.604;10.078;2024-02-21T11:37:00;101083.28;;;10.36;87.44
50103;BME280;35993;52.604;10.078;2024-02-21T11:39:26;101080.34;;;10.44;87.06
50103;BME280;35993;52.604;10.078;2024-02-21T11:42:04;101082.84;;;10.39;86.23
50103;BME280;35993;52.604;10.078;2024-02-21T11:44:30;101074.09;;;10.44;86.49
50103;BME280;35993;52.604;10.078;2024-02-21T11:46:56;101060.72;;;10.49;86.38
50103;BME280;35993;52.604;10.078;2024-02-21T11:49:24;101054.66;;;10.47;85.54
50103;BME280;35993;52.604;10.078;2024-02-21T11:51:57;101037.31;;;10.35;84.30
50103;BME280;35993;52.604;10.078;2024-02-21T11:54:24;101027.91;;;10.24;84.26
50103;BME280;35993;52.604;10.078;2024-02-21T11:56:50;101038.13;;;10.35;84.36
50103;BME280;35993;52.604;10.078;2024-02-21T11:59:15;101036.91;;;10.38;83.90
50103;BME280;35993;52.604;10.078;2024-02-21T12:01:41;101033.78;;;10.41;84.26
50103;BME280;35993;52.604;10.078;2024-02-21T12:04:07;101032.53;;;10.43;83.89
50103;BME280;35993;52.604;10.078;2024-02-21T12:06:33;101026.47;;;10.35;83.81
50103;BME280;35993;52.604;10.078;2024-02-21T12:08:59;101020.41;;;10.39;84.08
50103;BME280;35993;52.604;10.078;2024-02-21T12:11:24;101030.22;;;10.47;84.83
50103;BME280;35993;52.604;10.078;2024-02-21T12:14:03;101015.00;;;10.39;83.80
50103;BME280;35993;52.604;10.078;2024-02-21T12:16:30;101009.38;;;10.47;84.20
50103;BME280;35993;52.604;10.078;2024-02-21T12:18:57;101016.66;;;10.54;85.27
50103;BME280;35993;52.604;10.078;2024-02-21T12:21:33;101008.50;;;10.54;85.08
50103;BME280;35993;52.604;10.078;2024-02-21T12:24:21;101004.75;;;10.48;83.99
50103;BME280;35993;52.604;10.078;2024-02-21T12:26:47;100999.13;;;10.49;84.41
50103;BME280;35993;52.604;10.078;2024-02-21T12:29:12;101003.94;;;10.54;84.78
50103;BME280;35993;52.604;10.078;2024-02-21T12:31:39;100995.56;;;10.56;85.17
50103;BME280;35993;52.604;10.078;2024-02-21T12:34:05;100997.44;;;10.69;85.16
50103;BME280;35993;52.604;10.078;2024-02-21T12:36:32;100990.31;;;10.81;85.21
50103;BME280;35993;52.604;10.078;2024-02-21T12:38:58;100993.03;;;10.88;83.79
50103;BME280;35993;52.604;10.078;2024-02-21T12:41:23;100977.19;;;10.71;82.37
50103;BME280;35993;52.604;10.078;2024-02-21T12:43:51;100980.75;;;10.72;82.72
50103;BME280;35993;52.604;10.078;2024-02-21T12:46:16;100973.38;;;10.86;83.03